North Branch, MN

3:04 AM CDT on September 03, 2015 (GMT -0500)
Steve's back yard | | Change Station
CLOSE
Current Station
Personal Weather Station
Location: Harris, MN
Elevation: 910 ft
Nearby Weather Stations

Elev 910 ft 45.58 °N, 92.97 °W | Updated 16 seconds ago

Partly Cloudy
Partly Cloudy
64.6 °F
Feels Like 64.6 °F
N
0.0
Wind Variable Wind from North
Gusts 0.0 mph

Today
High -- | Low -- °F
--% Chance of Precip.
Yesterday
High -- | Low -- °F
Precip. -- in
6:35 AM 7:46 PM
Waning Gibbous, 72% visible
Pressure 29.92 in
Visibility 10.0 miles
Clouds Scattered Clouds 12000 ft
Dew Point 64 °F
Humidity 98%
Rainfall 0.00 in
Snow Depth Not available.
UV 0 out of 12
Pollen 9.20 out of 12
Air Quality Not available.
Flu Activity Not available.
METAR KROS 030755Z AUTO 06003KT 10SM SCT120 18/17 A2992 RMK AO2 T01820174
Pressure 29.92 in
Visibility 10.0 miles
Clouds Scattered Clouds 12000 ft
Dew Point 64 °F
Humidity 98%
Rainfall 0.00 in
Snow Depth Not available.
UV 0 out of 12
Pollen 9.20 out of 12
Air Quality Not available.
Flu Activity Not available.
METAR KROS 030755Z AUTO 06003KT 10SM SCT120 18/17 A2992 RMK AO2 T01820174

10-Day Weather Forecast

×

Almanac

Astronomy

Sep. 03, 2015 Rise Set
Actual Time
Civil Twilight
Nautical Twilight
Astronomical Twilight
Moon
Length of Visible Light
Length of Day
Tomorrow will be .
, % of the Moon is Illuminated

Today's Extremes

State Highs State Lows

Community

WunderPhotos

Upload Photos

1,851,919 photos uploaded!

WunderBlogs® & News

Nearby

Air Quality

  Air Quality AQ Index Pollutant
Not available.

Snow Depth

Station Depth Elevation

Earthquake Activity

City Distance Mag. Time & Date
Minimum magnitude displayed is 2.5.

Coastal Water Temperatures

Place Temperature

Stations

Nearby Weather Stations

Station Location Temp. Windchill Dew Point Humidity Wind Precip. Elev Updated Type